Time;durP1;ratioP1;P1;durP2;ratioP2;P2;SDS_P1;SDS_P2;PMS_P1;PMS_P2;Temp;Humidity;BMP_temperature;BMP_pressure;BME280_temperature;BME280_humidity;BME280_pressure;Samples;Min_cycle;Max_cycle;Signal;HPM_P1;HPM_P2
2021/12/12 00:02:21;;;;;;;15.27;6.35;;;;;;;-11.44;76.74;101598.47;5042364;28;20053;-86
2021/12/12 00:04:50;;;;;;;17.33;6.97;;;;;;;-11.45;77.21;101594.13;5040572;28;20088;-87
2021/12/12 00:07:24;;;;;;;24.10;7.10;;;;;;;-11.30;76.47;101584.06;5037752;28;20049;-88
2021/12/12 00:09:58;;;;;;;11.90;5.82;;;;;;;-11.27;76.52;101605.50;5026064;28;20060;-88
2021/12/12 00:12:28;;;;;;;16.30;6.28;;;;;;;-11.42;76.84;101576.88;5048258;28;20056;-88
2021/12/12 00:14:56;;;;;;;17.95;7.10;;;;;;;-11.36;76.94;101589.28;5019923;28;20046;-88
2021/12/12 00:17:26;;;;;;;17.42;7.05;;;;;;;-11.40;77.09;101582.06;5018474;28;20055;-89
2021/12/12 00:19:53;;;;;;;16.80;6.93;;;;;;;-11.47;76.86;101572.00;5035854;28;20099;-89
2021/12/12 00:22:25;;;;;;;14.43;6.30;;;;;;;-11.39;77.02;101583.88;5036743;28;20506;-87
2021/12/12 00:24:53;;;;;;;16.75;6.68;;;;;;;-11.45;76.88;101590.72;5036223;28;20577;-89
2021/12/12 00:27:21;;;;;;;16.60;6.93;;;;;;;-11.37;76.90;101595.06;5034824;28;20416;-88
2021/12/12 00:29:49;;;;;;;19.98;7.65;;;;;;;-11.48;77.30;101568.56;5037680;28;20083;-88
2021/12/12 00:32:18;;;;;;;18.90;6.68;;;;;;;-11.27;76.71;101608.03;5018946;28;20429;-87
2021/12/12 00:34:53;;;;;;;15.50;6.97;;;;;;;-11.29;76.86;101612.00;5035537;28;20045;-88
2021/12/12 00:37:21;;;;;;;19.45;7.13;;;;;;;-11.07;76.85;101617.03;5035475;28;20110;-86
2021/12/12 00:39:54;;;;;;;19.80;7.68;;;;;;;-10.90;76.79;101622.41;5034201;28;20061;-87
2021/12/12 00:42:24;;;;;;;15.23;6.40;;;;;;;-10.66;75.84;101620.94;5034985;28;20433;-87
2021/12/12 00:44:56;;;;;;;18.02;7.03;;;;;;;-10.55;75.60;101611.31;5036176;28;20049;-88
2021/12/12 00:47:23;;;;;;;15.45;7.03;;;;;;;-10.58;75.56;101603.41;5020040;28;20057;-87
2021/12/12 00:50:20;;;;;;;15.75;6.43;;;;;;;-10.64;75.70;101611.91;5044007;28;20075;-85
2021/12/12 00:52:49;;;;;;;15.70;7.18;;;;;;;-10.75;75.78;101624.19;5048993;28;20052;-85
2021/12/12 00:55:16;;;;;;;14.15;6.45;;;;;;;-10.82;75.68;101611.56;5036858;28;20073;-86
2021/12/12 00:57:50;;;;;;;18.00;7.30;;;;;;;-10.85;75.87;101600.22;5039916;28;20068;-84
2021/12/12 01:00:21;;;;;;;18.08;7.55;;;;;;;-10.90;75.17;101587.06;5036302;28;20091;-88
2021/12/12 01:02:50;;;;;;;16.42;6.10;;;;;;;-10.74;75.52;101620.91;5035408;28;20171;-88
2021/12/12 01:05:18;;;;;;;13.68;6.63;;;;;;;-10.60;75.35;101625.06;5034728;28;20053;-87
2021/12/12 01:07:48;;;;;;;15.55;6.75;;;;;;;-10.55;74.80;101623.94;5040977;28;20084;-86
2021/12/12 01:10:30;;;;;;;17.30;7.20;;;;;;;-10.53;74.71;101612.41;5048388;28;20152;-87
2021/12/12 01:13:00;;;;;;;19.42;7.20;;;;;;;-10.64;74.19;101612.78;5077225;28;20053;-89
2021/12/12 01:15:33;;;;;;;14.20;7.47;;;;;;;-10.44;74.87;101622.66;5034544;28;20533;-88
2021/12/12 01:18:06;;;;;;;17.58;7.30;;;;;;;-10.28;74.86;101625.28;5036081;28;20091;-88
2021/12/12 01:21:01;;;;;;;18.60;6.95;;;;;;;-10.40;73.89;101580.97;5035329;28;20046;-87
2021/12/12 01:23:35;;;;;;;18.95;7.30;;;;;;;-10.11;73.65;101637.28;5033574;28;20115;-87
2021/12/12 01:26:07;;;;;;;16.90;6.90;;;;;;;-10.33;73.82;101634.88;5033880;28;20049;-86
2021/12/12 01:28:40;;;;;;;21.20;6.55;;;;;;;-10.38;74.29;101630.03;5034990;28;20053;-86
2021/12/12 01:31:10;;;;;;;13.88;6.40;;;;;;;-10.43;73.67;101627.00;5034549;28;20049;-87
2021/12/12 01:33:38;;;;;;;17.58;7.20;;;;;;;-10.45;74.48;101625.91;5032754;28;20080;-87
2021/12/12 01:36:24;;;;;;;21.02;7.82;;;;;;;-10.39;74.00;101621.56;5034319;28;20458;-88
2021/12/12 01:38:54;;;;;;;19.85;8.05;;;;;;;-10.40;73.43;101619.75;5032206;28;20049;-85
2021/12/12 01:41:56;;;;;;;16.45;7.50;;;;;;;-10.28;73.54;101639.53;5033869;28;20053;-85
2021/12/12 01:44:32;;;;;;;17.15;7.95;;;;;;;-10.23;73.48;101625.81;5040986;28;20053;-85
2021/12/12 01:47:08;;;;;;;17.58;6.50;;;;;;;-10.14;72.74;101612.56;5047984;28;20123;-84
2021/12/12 01:49:40;;;;;;;19.50;7.72;;;;;;;-10.36;72.37;101615.97;5048900;28;20065;-87
2021/12/12 01:52:11;;;;;;;16.38;6.75;;;;;;;-10.59;72.92;101609.16;5049360;28;20061;-87
2021/12/12 01:54:44;;;;;;;18.95;7.00;;;;;;;-10.76;72.96;101609.75;5044838;28;20120;-86
2021/12/12 01:57:20;;;;;;;15.68;6.22;;;;;;;-10.87;72.93;101616.81;5049738;28;20041;-87
2021/12/12 01:59:49;;;;;;;10.52;4.85;;;;;;;-10.91;72.69;101618.06;5060626;28;20076;-83
2021/12/12 02:02:36;;;;;;;17.17;7.40;;;;;;;-10.89;73.27;101623.31;5059914;28;20060;-85
2021/12/12 02:05:15;;;;;;;16.90;7.70;;;;;;;-10.97;73.37;101609.78;5060550;28;20093;-84
2021/12/12 02:07:50;;;;;;;18.85;7.32;;;;;;;-11.03;73.19;101607.47;5043067;28;20049;-84
2021/12/12 02:10:23;;;;;;;20.83;7.93;;;;;;;-11.27;73.14;101570.19;5048716;28;20121;-86
2021/12/12 02:12:50;;;;;;;16.15;7.05;;;;;;;-11.07;72.78;101596.84;5039026;28;20187;-86
2021/12/12 02:15:21;;;;;;;21.98;8.10;;;;;;;-11.07;73.01;101595.22;5036695;28;20073;-86
2021/12/12 02:17:50;;;;;;;22.63;8.73;;;;;;;-11.02;73.37;101593.22;5036187;28;20061;-87
2021/12/12 02:20:31;;;;;;;21.38;8.43;;;;;;;-11.05;72.87;101582.78;5039356;28;20084;-87
2021/12/12 02:24:33;;;;;;;19.15;8.05;;;;;;;-10.90;72.89;101609.78;5057242;28;20049;-86
2021/12/12 02:37:04;;;;;;;20.45;8.63;;;;;;;-11.19;73.14;101591.25;5057302;28;20143;-87
2021/12/12 02:39:34;;;;;;;28.63;8.90;;;;;;;-11.58;73.34;101540.47;5056894;28;20057;-86
2021/12/12 02:42:06;;;;;;;27.38;9.45;;;;;;;-11.22;73.79;101612.00;5057484;28;20094;-86
2021/12/12 02:44:35;;;;;;;29.75;10.23;;;;;;;-11.23;73.96;101576.47;5070640;28;20045;-88
2021/12/12 02:47:11;;;;;;;30.13;10.48;;;;;;;-11.15;73.80;101575.75;5063603;28;20049;-88
2021/12/12 02:52:20;;;;;;;32.83;11.27;;;;;;;-11.02;73.46;101580.59;5073249;28;20497;-88
2021/12/12 02:54:48;;;;;;;29.98;11.05;;;;;;;-10.95;73.47;101570.47;5055455;28;20448;-89
2021/12/12 02:57:19;;;;;;;33.35;11.07;;;;;;;-10.74;73.34;101600.72;5055651;28;20480;-89
2021/12/12 02:59:50;;;;;;;25.65;9.82;;;;;;;-10.83;73.20;101602.19;5055476;28;20080;-87
2021/12/12 03:02:29;;;;;;;27.73;9.45;;;;;;;-10.87;73.84;101605.09;5056701;28;20060;-88
2021/12/12 03:04:59;;;;;;;29.43;10.53;;;;;;;-11.02;73.54;101568.88;5055835;28;20136;-90
2021/12/12 03:07:27;;;;;;;18.58;7.55;;;;;;;-11.02;73.96;101600.78;5056201;28;20068;-88
2021/12/12 03:09:57;;;;;;;24.70;8.15;;;;;;;-11.12;73.95;101593.75;5056269;28;20143;-88
2021/12/12 03:12:33;;;;;;;20.55;7.82;;;;;;;-11.19;74.28;101592.13;5056725;28;20056;-88
2021/12/12 03:15:08;;;;;;;24.02;8.27;;;;;;;-11.26;74.00;101574.50;5059259;28;20503;-89
2021/12/12 03:17:36;;;;;;;23.63;8.55;;;;;;;-11.45;74.24;101548.75;5062498;28;20513;-89
2021/12/12 03:20:23;;;;;;;26.40;9.57;;;;;;;-11.29;74.40;101569.09;5058374;28;20057;-88
2021/12/12 03:23:15;;;;;;;25.80;9.40;;;;;;;-11.11;74.60;101604.78;5042568;28;20049;-88
2021/12/12 03:25:44;;;;;;;25.42;10.05;;;;;;;-10.92;74.38;101591.94;5042136;28;20496;-87
2021/12/12 03:28:16;;;;;;;28.65;10.40;;;;;;;-10.70;74.11;101593.50;5055373;28;20079;-86
2021/12/12 03:30:44;;;;;;;24.52;9.38;;;;;;;-10.79;73.70;101586.69;5056169;28;20501;-90
2021/12/12 03:33:12;;;;;;;29.58;10.20;;;;;;;-10.79;74.64;101586.69;5041817;28;20094;-89
2021/12/12 03:35:39;;;;;;;30.42;9.73;;;;;;;-10.89;74.45;101557.66;5055897;28;20417;-89
2021/12/12 03:38:07;;;;;;;29.50;9.88;;;;;;;-10.70;74.25;101579.25;5055544;28;20091;-88
2021/12/12 03:40:38;;;;;;;28.60;9.45;;;;;;;-10.49;74.27;101585.88;5038347;28;20432;-89
2021/12/12 03:43:07;;;;;;;27.23;9.07;;;;;;;-10.46;73.64;101560.94;5056819;28;20056;-91
2021/12/12 03:45:37;;;;;;;36.45;10.88;;;;;;;-10.53;73.86;101564.41;5038615;28;20095;-87
2021/12/12 03:48:15;;;;;;;33.55;11.32;;;;;;;-10.61;74.51;101577.78;5056605;28;20148;-88
2021/12/12 03:50:44;;;;;;;32.75;10.77;;;;;;;-10.68;74.17;101587.91;5038109;28;20500;-88
2021/12/12 03:53:12;;;;;;;31.98;10.35;;;;;;;-10.74;74.80;101580.50;5055813;28;20063;-88
2021/12/12 03:55:42;;;;;;;32.20;10.95;;;;;;;-10.70;74.49;101575.84;5055148;28;20171;-88
2021/12/12 03:58:13;;;;;;;36.70;11.07;;;;;;;-10.69;74.62;101570.03;5056598;28;20060;-90
2021/12/12 04:00:57;;;;;;;33.67;12.43;;;;;;;-10.61;75.47;101577.78;5039224;28;20049;-91
2021/12/12 04:03:25;;;;;;;31.58;11.60;;;;;;;-10.65;74.94;101570.56;5055552;28;20145;-85
2021/12/12 04:05:56;;;;;;;38.13;12.07;;;;;;;-10.65;74.61;101584.81;5055104;28;20049;-86
2021/12/12 04:08:26;;;;;;;40.47;11.70;;;;;;;-11.00;75.01;101539.66;5066725;28;20053;-84
2021/12/12 04:10:53;;;;;;;43.97;12.25;;;;;;;-10.74;74.96;101582.16;5057774;28;20049;-87
2021/12/12 04:13:21;;;;;;;33.50;11.43;;;;;;;-10.77;74.81;101569.19;5076995;28;20077;-85
2021/12/12 04:15:54;;;;;;;30.85;10.95;;;;;;;-10.69;75.42;101577.63;5052068;28;20103;-87
2021/12/12 04:18:24;;;;;;;34.35;10.98;;;;;;;-10.66;75.15;101573.84;5054249;28;20056;-84
2021/12/12 04:20:51;;;;;;;29.25;10.80;;;;;;;-10.65;74.88;101567.16;5057144;28;20056;-87
2021/12/12 04:23:22;;;;;;;29.00;9.45;;;;;;;-10.73;74.57;101558.72;5055114;28;20457;-85
2021/12/12 04:25:50;;;;;;;32.60;10.35;;;;;;;-10.78;74.77;101573.31;5049374;28;20049;-87
2021/12/12 04:28:18;;;;;;;32.33;11.23;;;;;;;-10.73;75.38;101586.50;5035961;28;20549;-83
2021/12/12 04:30:45;;;;;;;32.70;10.00;;;;;;;-10.67;75.62;101571.13;5041728;28;20084;-87
2021/12/12 04:33:13;;;;;;;35.45;11.50;;;;;;;-10.56;75.14;101584.28;5054807;28;20111;-86
2021/12/12 04:35:40;;;;;;;28.25;10.07;;;;;;;-10.44;75.23;101576.28;5037229;28;20061;-85
2021/12/12 04:38:07;;;;;;;30.65;10.02;;;;;;;-10.42;74.76;101587.47;5047196;28;20041;-86
2021/12/12 04:40:37;;;;;;;31.10;10.75;;;;;;;-10.42;75.14;101578.25;5057824;28;20068;-85
2021/12/12 04:43:04;;;;;;;35.05;11.10;;;;;;;-10.37;75.00;101578.75;5057633;28;20101;-83
2021/12/12 04:45:41;;;;;;;28.13;10.32;;;;;;;-10.44;75.31;101579.69;5064695;28;20096;-84
2021/12/12 04:51:21;;;;;;;29.33;10.25;;;;;;;-10.73;75.10;101567.19;5049939;28;20053;-83
2021/12/12 04:54:11;;;;;;;27.05;9.18;;;;;;;-10.60;74.91;101597.28;5047944;28;20057;-85
2021/12/12 04:57:02;;;;;;;29.63;10.98;;;;;;;-10.56;75.42;101601.03;5045389;28;20056;-85
2021/12/12 04:59:47;;;;;;;27.25;9.65;;;;;;;-10.43;75.34;101596.69;5034275;28;20655;-86
2021/12/12 05:02:23;;;;;;;32.45;10.48;;;;;;;-10.41;75.07;101597.75;5057979;28;20037;-86
2021/12/12 05:05:24;;;;;;;31.23;10.10;;;;;;;-10.38;74.98;101575.34;5037825;28;20076;-87
2021/12/12 05:08:04;;;;;;;30.98;10.05;;;;;;;-10.34;75.33;101574.06;5057265;28;20063;-86
2021/12/12 05:10:37;;;;;;;29.45;10.65;;;;;;;-10.38;74.87;101589.59;5058008;28;20029;-86
2021/12/12 05:13:13;;;;;;;31.90;10.48;;;;;;;-10.43;74.87;101596.69;5070789;28;20092;-86
2021/12/12 05:15:45;;;;;;;25.85;8.70;;;;;;;-10.40;74.62;101612.16;5078434;28;20068;-86
2021/12/12 05:18:27;;;;;;;32.63;10.15;;;;;;;-10.39;75.40;101600.44;5077032;28;20061;-86
2021/12/12 05:21:23;;;;;;;31.13;11.02;;;;;;;-10.27;74.90;101595.84;5074091;28;20049;-85
2021/12/12 05:23:55;;;;;;;30.23;10.05;;;;;;;-10.21;74.78;101582.28;5064897;28;20167;-86
2021/12/12 05:26:27;;;;;;;30.92;10.48;;;;;;;-10.08;74.33;101616.53;5071809;28;20044;-87
2021/12/12 05:29:17;;;;;;;32.15;11.35;;;;;;;-10.02;74.65;101597.88;5064300;28;20433;-86
2021/12/12 05:31:50;;;;;;;35.88;10.95;;;;;;;-10.04;74.13;101604.41;5053255;28;20063;-86
2021/12/12 05:34:19;;;;;;;35.05;11.82;;;;;;;-10.19;74.11;101588.41;5055101;28;20071;-86
2021/12/12 05:36:48;;;;;;;37.38;11.38;;;;;;;-10.07;74.63;101608.19;5036236;28;20531;-86
2021/12/12 05:39:15;;;;;;;35.85;11.80;;;;;;;-10.05;74.74;101606.75;5054872;28;20442;-85
2021/12/12 05:41:43;;;;;;;41.50;12.15;;;;;;;-10.13;74.79;101605.88;5054168;28;20064;-85
2021/12/12 05:44:10;;;;;;;34.88;11.70;;;;;;;-10.12;74.99;101615.28;5054289;28;20057;-85
2021/12/12 05:46:39;;;;;;;37.97;12.20;;;;;;;-10.15;74.99;101597.22;5053560;28;20049;-86
2021/12/12 05:49:06;;;;;;;44.42;12.65;;;;;;;-10.00;74.64;101605.63;5052875;28;20056;-86
2021/12/12 05:51:35;;;;;;;38.40;11.35;;;;;;;-9.93;74.77;101590.44;5054330;28;20071;-87
2021/12/12 05:54:04;;;;;;;35.95;11.18;;;;;;;-9.77;74.53;101598.97;5054490;28;20064;-86
2021/12/12 05:56:35;;;;;;;38.78;11.95;;;;;;;-9.71;74.48;101611.41;5051968;28;20467;-87
2021/12/12 05:59:03;;;;;;;;;;;;;;;-9.83;74.48;101610.03;5053753;28;20462;-87
2021/12/12 06:01:31;;;;;;;35.20;11.63;;;;;;;-9.72;74.73;101617.19;5053527;28;19968;-86
2021/12/12 06:03:58;;;;;;;40.28;12.77;;;;;;;-9.64;74.04;101611.38;5054505;28;20053;-86
2021/12/12 06:06:36;;;;;;;34.03;10.85;;;;;;;-9.75;74.86;101610.16;5053058;28;20056;-86
2021/12/12 06:09:07;;;;;;;33.00;12.50;;;;;;;-9.68;74.45;101601.63;5087332;28;20077;-86
2021/12/12 06:11:39;;;;;;;38.95;12.30;;;;;;;-9.67;74.42;101616.09;5054002;28;20053;-88
2021/12/12 06:14:07;;;;;;;39.00;11.98;;;;;;;-9.72;74.65;101604.53;5055147;28;20063;-87
2021/12/12 06:16:36;;;;;;;36.13;11.85;;;;;;;-9.72;74.71;101620.66;5052981;28;20081;-86
2021/12/12 06:19:16;;;;;;;38.35;10.10;;;;;;;-9.81;74.69;101618.72;5053124;28;20475;-89
2021/12/12 06:21:44;;;;;;;42.88;13.30;;;;;;;-9.75;75.03;101619.41;5045614;28;20095;-89
2021/12/12 06:24:13;;;;;;;41.08;12.38;;;;;;;-9.81;75.03;101589.25;5034661;28;20076;-87
2021/12/12 06:26:40;;;;;;;38.20;12.10;;;;;;;-9.66;74.27;101602.69;5046856;28;20052;-87
2021/12/12 06:29:08;;;;;;;42.20;12.68;;;;;;;-9.61;74.45;101610.78;5063895;28;20475;-86
2021/12/12 06:31:38;;;;;;;35.67;12.25;;;;;;;-9.67;74.78;101616.09;5058579;28;20064;-87
2021/12/12 06:34:05;;;;;;;;;;;;;;;-9.63;74.55;101613.19;5057459;28;20103;-85
2021/12/12 06:36:33;;;;;;;44.70;13.60;;;;;;;-9.51;74.42;101603.50;5057666;28;19924;-86
2021/12/12 06:39:00;;;;;;;46.25;14.60;;;;;;;-9.49;74.08;101604.56;5056134;28;20182;-88
2021/12/12 06:41:28;;;;;;;47.88;13.38;;;;;;;-9.49;74.75;101612.16;5057539;28;20080;-87
2021/12/12 06:43:56;;;;;;;42.13;13.73;;;;;;;-9.57;74.11;101602.81;5059072;28;20056;-88
2021/12/12 06:46:24;;;;;;;45.58;14.35;;;;;;;-9.56;74.81;101592.00;5056685;28;20045;-87
2021/12/12 06:48:53;;;;;;;39.13;12.82;;;;;;;-9.37;74.45;101593.28;5058292;28;20064;-85
2021/12/12 06:51:21;;;;;;;50.33;14.68;;;;;;;-9.27;74.65;101603.69;5056608;28;20075;-87
2021/12/12 06:53:48;;;;;;;49.13;14.18;;;;;;;-9.24;74.47;101612.34;5057812;28;20052;-87
2021/12/12 06:56:20;;;;;;;52.42;15.65;;;;;;;-9.21;74.69;101617.72;5056622;28;20049;-86
2021/12/12 06:58:51;;;;;;;45.78;14.07;;;;;;;-9.31;74.69;101598.13;5061434;28;20057;-86
2021/12/12 07:01:22;;;;;;;;;;;;;;;-9.36;74.87;101609.34;5066983;28;20107;-85
2021/12/12 07:03:51;;;;;;;48.60;13.95;;;;;;;-9.37;75.07;101603.41;5066822;28;20297;-86
2021/12/12 07:06:21;;;;;;;42.67;13.48;;;;;;;-9.28;74.79;101594.28;5066949;28;20075;-86
2021/12/12 07:08:48;;;;;;;39.00;14.15;;;;;;;-9.24;75.10;101619.94;5056218;28;20145;-86
2021/12/12 07:11:21;;;;;;;49.55;14.93;;;;;;;-9.28;74.78;101616.16;5039921;28;20053;-86
2021/12/12 07:13:49;;;;;;;47.60;14.85;;;;;;;-9.28;74.59;101617.06;5062453;28;20594;-86
2021/12/12 07:16:19;;;;;;;50.30;15.73;;;;;;;-9.10;74.79;101618.19;5058144;28;20110;-90
2021/12/12 07:18:52;;;;;;;46.95;14.70;;;;;;;-9.10;74.55;101627.41;5056553;28;20045;-87
2021/12/12 07:21:21;;;;;;;53.85;18.67;;;;;;;-9.12;74.77;101621.25;5057583;28;20413;-87
2021/12/12 07:23:52;;;;;;;60.78;18.45;;;;;;;-9.13;75.00;101617.84;5055783;28;20053;-88
2021/12/12 07:26:22;;;;;;;60.03;18.10;;;;;;;-9.06;74.91;101612.69;5074587;28;20063;-88
2021/12/12 07:28:50;;;;;;;;;;;;;;;-9.23;75.09;101609.97;5057049;28;20110;-88
2021/12/12 07:31:21;;;;;;;80.88;25.65;;;;;;;-9.27;74.83;101616.34;5055951;28;19925;-83
2021/12/12 07:33:52;;;;;;;65.80;21.67;;;;;;;-9.11;75.41;101610.41;5055598;28;20056;-86
2021/12/12 07:36:22;;;;;;;59.90;19.77;;;;;;;-9.14;75.26;101594.88;5056245;28;20049;-83
2021/12/12 07:38:56;;;;;;;56.33;17.20;;;;;;;-9.09;75.25;101608.97;5058192;28;20075;-85
2021/12/12 07:41:27;;;;;;;58.88;16.63;;;;;;;-9.10;75.15;101600.47;5055817;28;20135;-85
2021/12/12 07:43:56;;;;;;;55.60;18.58;;;;;;;-8.90;75.73;101606.78;5058373;28;20049;-86
2021/12/12 07:46:25;;;;;;;52.53;15.98;;;;;;;-8.80;74.68;101584.22;5039964;28;20128;-83
2021/12/12 07:48:54;;;;;;;50.70;17.08;;;;;;;-8.77;74.76;101592.19;5060053;28;20064;-85
2021/12/12 07:51:24;;;;;;;48.50;16.02;;;;;;;-8.83;75.27;101585.56;5055789;28;20075;-85
2021/12/12 07:53:53;;;;;;;;;;;;;;;-8.85;75.60;101592.97;5054935;28;20068;-83
2021/12/12 07:56:22;;;;;;;42.65;14.68;;;;;;;-8.79;74.84;101601.25;5056797;28;19925;-86
2021/12/12 07:58:50;;;;;;;45.42;15.77;;;;;;;-8.68;75.40;101584.66;5055480;28;20559;-86
2021/12/12 08:01:18;;;;;;;49.05;15.38;;;;;;;-8.57;74.93;101590.88;5074373;28;20505;-83
2021/12/12 08:03:46;;;;;;;43.53;14.63;;;;;;;-8.61;74.88;101569.38;5040925;28;20041;-84
2021/12/12 08:06:15;;;;;;;51.88;15.00;;;;;;;-8.62;74.67;101600.53;5054041;28;20122;-84
2021/12/12 08:08:43;;;;;;;48.88;15.65;;;;;;;-8.55;75.26;101579.28;5054512;28;20490;-81
2021/12/12 08:11:16;;;;;;;49.60;15.40;;;;;;;-8.54;75.33;101561.69;5053176;28;20583;-83
2021/12/12 08:13:43;;;;;;;67.80;15.65;;;;;;;-8.55;75.46;101564.94;5053256;28;20485;-83
2021/12/12 08:16:14;;;;;;;54.97;15.73;;;;;;;-8.53;75.35;101562.59;5053647;28;20524;-83
2021/12/12 08:18:43;;;;;;;51.75;16.42;;;;;;;-8.46;75.23;101577.69;5054808;28;20049;-83
2021/12/12 08:21:14;;;;;;;54.10;16.48;;;;;;;-8.50;75.46;101558.72;5053172;28;20064;-82
2021/12/12 08:23:42;;;;;;;45.25;15.75;;;;;;;-8.41;75.55;101565.50;5056825;28;20087;-86
2021/12/12 08:26:10;;;;;;;60.95;16.92;;;;;;;-8.33;75.04;101549.44;5060691;28;20091;-83
2021/12/12 08:28:39;;;;;;;55.33;17.38;;;;;;;-7.94;75.40;101564.47;5056657;28;20045;-86
2021/12/12 08:31:07;;;;;;;53.00;16.92;;;;;;;-7.87;74.54;101577.09;5055368;28;20056;-83
2021/12/12 08:33:34;;;;;;;49.50;15.48;;;;;;;-7.81;74.89;101562.47;5052509;28;20139;-82
2021/12/12 08:36:02;;;;;;;64.20;16.40;;;;;;;-7.77;75.11;101562.03;5054159;28;20550;-83
2021/12/12 08:38:30;;;;;;;57.40;17.10;;;;;;;-7.57;74.43;101559.03;5054341;28;20053;-85
2021/12/12 08:41:00;;;;;;;59.75;18.33;;;;;;;-7.53;74.02;101558.59;5060236;28;20057;-84
2021/12/12 08:43:31;;;;;;;57.72;16.92;;;;;;;-7.56;74.78;101560.81;5055637;28;20056;-81
2021/12/12 08:46:03;;;;;;;56.63;18.38;;;;;;;-7.57;74.97;101566.66;5051283;28;20099;-83
2021/12/12 08:48:32;;;;;;;59.15;18.67;;;;;;;-7.42;74.64;101563.13;5053998;28;20049;-86
2021/12/12 08:51:06;;;;;;;67.68;19.13;;;;;;;-7.43;74.94;101543.56;5061378;28;20048;-86
2021/12/12 08:53:34;;;;;;;67.82;21.00;;;;;;;-7.11;73.84;101542.47;5057939;28;20069;-83
2021/12/12 08:56:04;;;;;;;62.58;20.83;;;;;;;-6.90;74.08;101547.16;5061838;28;20053;-86
2021/12/12 08:58:33;;;;;;;;;;;;;;;-6.81;73.65;101542.97;5064457;28;20068;-86
2021/12/12 09:01:08;;;;;;;64.47;23.05;;;;;;;-6.65;73.09;101534.31;5073524;28;19952;-84
2021/12/12 09:03:50;;;;;;;59.65;19.63;;;;;;;-6.73;73.08;101528.50;5075572;28;20049;-87
2021/12/12 09:06:22;;;;;;;75.28;23.08;;;;;;;-6.67;73.52;101523.09;5095479;28;20041;-85
2021/12/12 09:09:03;;;;;;;71.20;21.58;;;;;;;-6.25;73.13;101538.22;5055613;28;20060;-85
2021/12/12 09:11:33;;;;;;;67.90;22.88;;;;;;;-6.10;72.75;101539.69;5055433;28;20056;-86
2021/12/12 09:14:12;;;;;;;66.40;23.10;;;;;;;-5.91;72.68;101547.44;5054472;28;20492;-86
2021/12/12 09:16:43;;;;;;;76.32;23.13;;;;;;;-5.84;71.80;101537.06;5054850;28;20053;-89
2021/12/12 09:19:24;;;;;;;72.57;23.48;;;;;;;-6.03;72.18;101544.63;5054627;28;20076;-86
2021/12/12 09:22:48;;;;;;;57.67;20.25;;;;;;;-5.89;72.16;101561.19;5050770;28;20057;-83
2021/12/12 09:25:42;;;;;;;61.47;19.92;;;;;;;-5.99;71.95;101561.97;5050355;28;20147;-83
2021/12/12 09:28:16;;;;;;;66.53;21.40;;;;;;;-6.00;72.53;101554.19;5056075;28;20076;-86
2021/12/12 09:30:43;;;;;;;60.78;20.45;;;;;;;-6.06;72.27;101536.72;5062431;28;20079;-85
2021/12/12 09:33:19;;;;;;;64.55;20.27;;;;;;;-6.01;72.65;101532.94;5056205;28;20053;-84
2021/12/12 09:35:59;;;;;;;58.95;20.50;;;;;;;-6.41;72.84;101487.50;5056469;28;20147;-84
2021/12/12 09:38:40;;;;;;;66.00;20.63;;;;;;;-6.19;72.94;101546.47;5057940;28;20126;-84
2021/12/12 09:41:35;;;;;;;59.15;19.25;;;;;;;-6.22;73.46;101536.84;5056552;28;20057;-82
2021/12/12 09:44:13;;;;;;;58.92;19.38;;;;;;;-6.20;72.97;101535.34;5053684;28;20072;-84
2021/12/12 09:47:11;;;;;;;71.85;22.83;;;;;;;-6.26;73.63;101552.59;5052442;28;20083;-84
2021/12/12 09:53:51;;;;;;;68.13;22.25;;;;;;;-6.29;73.73;101533.59;5034074;28;20565;-82
2021/12/12 09:56:33;;;;;;;78.65;22.83;;;;;;;-6.23;74.35;101537.63;5010922;28;20110;-82
2021/12/12 09:59:28;;;;;;;65.88;23.10;;;;;;;-6.22;74.49;101538.50;5032298;28;20152;-83
2021/12/12 10:02:04;;;;;;;86.90;24.85;;;;;;;-6.20;74.30;101539.56;5032498;28;20132;-83
2021/12/12 10:04:47;;;;;;;78.72;25.42;;;;;;;-6.22;74.28;101536.84;5032733;28;20049;-85
2021/12/12 10:07:29;;;;;;;86.97;25.98;;;;;;;-6.33;74.25;101517.13;5049881;28;20104;-83
2021/12/12 10:10:05;;;;;;;74.88;21.45;;;;;;;-6.39;74.37;101514.91;5058850;28;20045;-83
2021/12/12 10:12:42;;;;;;;69.07;21.40;;;;;;;-6.09;74.17;101541.47;5049435;28;20087;-81
2021/12/12 10:15:26;;;;;;;71.22;20.73;;;;;;;-6.08;74.29;101534.78;5030659;28;20049;-83
2021/12/12 10:18:06;;;;;;;68.28;20.40;;;;;;;-6.02;74.54;101540.44;5050012;28;20886;-84
2021/12/12 10:20:54;;;;;;;65.03;20.75;;;;;;;-5.92;74.42;101534.53;5056676;28;20049;-84
2021/12/12 10:24:01;;;;;;;71.07;21.17;;;;;;;-5.92;74.04;101526.91;5055693;28;20153;-84
2021/12/12 10:26:41;;;;;;;66.50;19.80;;;;;;;-6.00;74.22;101522.03;5033481;28;20111;-83
2021/12/12 10:29:15;;;;;;;68.30;21.08;;;;;;;-6.00;74.70;101511.84;5053513;28;20130;-85
2021/12/12 10:31:53;;;;;;;73.93;22.83;;;;;;;-6.01;74.53;101512.59;5063546;28;20053;-83
2021/12/12 10:34:26;;;;;;;71.00;22.45;;;;;;;-5.76;74.69;101523.44;5056348;28;20053;-83
2021/12/12 10:37:13;;;;;;;72.60;22.35;;;;;;;-5.75;74.37;101501.41;5056158;28;20053;-84
2021/12/12 10:40:08;;;;;;;67.72;21.45;;;;;;;-5.75;74.21;101503.94;5057484;28;20083;-83
2021/12/12 10:42:53;;;;;;;63.75;20.55;;;;;;;-5.78;74.84;101508.75;5054840;28;20045;-84
2021/12/12 10:45:34;;;;;;;75.03;21.77;;;;;;;-5.82;74.60;101509.22;5055559;28;20068;-85
2021/12/12 10:48:13;;;;;;;76.80;21.00;;;;;;;-5.85;74.96;101476.75;5051811;28;20049;-83
2021/12/12 10:50:48;;;;;;;62.80;21.70;;;;;;;-5.66;74.71;101494.63;5056382;28;20044;-85
2021/12/12 10:53:34;;;;;;;82.43;24.45;;;;;;;-5.60;74.32;101499.41;5058785;28;20057;-84
2021/12/12 10:56:06;;;;;;;78.03;25.08;;;;;;;-5.57;74.66;101505.69;5056056;28;20078;-85
2021/12/12 10:58:33;;;;;;;81.85;23.58;;;;;;;-5.54;74.64;101510.16;5055038;28;20092;-84
2021/12/12 11:01:07;;;;;;;80.05;24.85;;;;;;;-5.42;74.92;101515.50;5055492;28;20060;-85
2021/12/12 11:04:10;;;;;;;80.47;23.70;;;;;;;-5.39;74.64;101500.53;5054972;28;20076;-86
2021/12/12 11:07:01;;;;;;;68.18;23.30;;;;;;;-5.41;74.71;101502.91;5054888;28;20053;-86
2021/12/12 11:09:45;;;;;;;82.22;24.33;;;;;;;-5.42;74.37;101478.22;5038573;28;20448;-85
2021/12/12 11:12:29;;;;;;;69.55;23.52;;;;;;;-5.38;74.28;101475.19;5035450;28;20045;-87
2021/12/12 11:15:11;;;;;;;72.18;23.92;;;;;;;-5.31;74.26;101484.31;5048108;28;20049;-88
2021/12/12 11:18:25;;;;;;;71.60;23.33;;;;;;;-5.24;74.51;101478.13;5064004;28;20021;-82
2021/12/12 11:21:02;;;;;;;75.15;23.00;;;;;;;-5.31;74.49;101485.94;5068418;28;20037;-85
2021/12/12 11:23:41;;;;;;;76.13;22.63;;;;;;;-5.28;74.37;101484.56;5070383;28;20051;-85
2021/12/12 11:26:15;;;;;;;69.55;20.85;;;;;;;-5.15;74.31;101496.78;5062865;28;20064;-85
2021/12/12 11:28:52;;;;;;;68.85;23.27;;;;;;;-5.28;74.27;101468.41;5054429;28;20064;-85
2021/12/12 11:31:32;;;;;;;68.80;20.88;;;;;;;-5.38;74.34;101475.19;5035102;28;20054;-86
2021/12/12 11:34:02;;;;;;;68.18;22.40;;;;;;;-5.15;74.50;101484.03;5048847;28;20469;-91
2021/12/12 11:36:45;;;;;;;67.35;21.50;;;;;;;-5.21;74.56;101496.22;5062935;28;20060;-88
2021/12/12 11:39:21;;;;;;;75.03;21.75;;;;;;;-5.10;74.59;101484.47;5069495;28;20067;-85
2021/12/12 11:41:58;;;;;;;74.70;24.10;;;;;;;-5.24;74.74;101471.34;5071972;28;20065;-85
2021/12/12 11:44:37;;;;;;;61.28;19.80;;;;;;;-5.06;74.66;101489.09;5059117;28;20075;-88
2021/12/12 11:47:08;;;;;;;69.45;21.45;;;;;;;-5.05;74.72;101486.69;5062765;28;20041;-83
2021/12/12 11:49:52;;;;;;;79.70;21.85;;;;;;;-5.01;74.48;101495.50;5078837;28;20041;-83
2021/12/12 11:52:58;;;;;;;67.25;21.10;;;;;;;-5.08;74.95;101482.94;5075717;28;20048;-85
2021/12/12 11:55:32;;;;;;;66.68;21.83;;;;;;;-5.13;74.95;101481.66;5057457;28;20037;-84
2021/12/12 11:58:06;;;;;;;67.95;21.27;;;;;;;-5.11;75.43;101475.94;5057565;28;20041;-84
2021/12/12 12:00:40;;;;;;;79.30;23.02;;;;;;;-5.06;75.56;101474.69;5044465;28;20497;-85
2021/12/12 12:03:27;;;;;;;82.93;23.55;;;;;;;-5.38;75.34;101446.25;5040136;28;20053;-86